sensor_id;sensor_type;location;lat;lon;timestamp;temperature;humidity
45843;DHT22;31563;51.744;8.252;2024-03-08T00:00:31;16.90;58.00
45843;DHT22;31563;51.744;8.252;2024-03-08T00:03:01;16.90;58.00
45843;DHT22;31563;51.744;8.252;2024-03-08T00:05:30;16.90;57.90
45843;DHT22;31563;51.744;8.252;2024-03-08T00:07:58;16.90;57.80
45843;DHT22;31563;51.744;8.252;2024-03-08T00:10:26;16.80;57.80
45843;DHT22;31563;51.744;8.252;2024-03-08T00:12:55;16.80;57.80
45843;DHT22;31563;51.744;8.252;2024-03-08T00:15:24;16.80;57.70
45843;DHT22;31563;51.744;8.252;2024-03-08T00:17:52;16.80;57.80
45843;DHT22;31563;51.744;8.252;2024-03-08T00:20:22;16.80;57.80
45843;DHT22;31563;51.744;8.252;2024-03-08T00:22:50;16.80;57.80
45843;DHT22;31563;51.744;8.252;2024-03-08T00:25:18;16.80;57.80
45843;DHT22;31563;51.744;8.252;2024-03-08T00:27:46;16.80;57.70
45843;DHT22;31563;51.744;8.252;2024-03-08T00:30:16;16.70;57.70
45843;DHT22;31563;51.744;8.252;2024-03-08T00:32:44;16.70;57.70
45843;DHT22;31563;51.744;8.252;2024-03-08T00:35:12;16.70;57.70
45843;DHT22;31563;51.744;8.252;2024-03-08T00:37:42;16.70;57.70
45843;DHT22;31563;51.744;8.252;2024-03-08T00:40:14;16.60;57.60
45843;DHT22;31563;51.744;8.252;2024-03-08T00:42:42;16.60;57.60
45843;DHT22;31563;51.744;8.252;2024-03-08T00:45:11;16.60;57.70
45843;DHT22;31563;51.744;8.252;2024-03-08T00:47:40;16.60;57.70
45843;DHT22;31563;51.744;8.252;2024-03-08T00:50:11;16.50;57.70
45843;DHT22;31563;51.744;8.252;2024-03-08T00:52:39;16.50;57.80
45843;DHT22;31563;51.744;8.252;2024-03-08T00:55:09;16.50;57.80
45843;DHT22;31563;51.744;8.252;2024-03-08T00:57:38;16.50;57.90
45843;DHT22;31563;51.744;8.252;2024-03-08T01:00:07;16.40;57.80
45843;DHT22;31563;51.744;8.252;2024-03-08T01:02:38;16.40;57.90
45843;DHT22;31563;51.744;8.252;2024-03-08T01:05:07;16.40;57.90
45843;DHT22;31563;51.744;8.252;2024-03-08T01:07:36;16.40;58.00
45843;DHT22;31563;51.744;8.252;2024-03-08T01:10:05;16.40;58.00
45843;DHT22;31563;51.744;8.252;2024-03-08T01:12:37;16.40;57.80
45843;DHT22;31563;51.744;8.252;2024-03-08T01:15:06;16.40;57.80
45843;DHT22;31563;51.744;8.252;2024-03-08T01:17:35;16.40;57.70
45843;DHT22;31563;51.744;8.252;2024-03-08T01:20:04;16.40;57.70
45843;DHT22;31563;51.744;8.252;2024-03-08T01:22:32;16.40;57.80
45843;DHT22;31563;51.744;8.252;2024-03-08T01:25:01;16.30;57.70
45843;DHT22;31563;51.744;8.252;2024-03-08T01:27:31;16.30;57.80
45843;DHT22;31563;51.744;8.252;2024-03-08T01:30:00;16.30;57.80
45843;DHT22;31563;51.744;8.252;2024-03-08T01:32:29;16.30;57.70
45843;DHT22;31563;51.744;8.252;2024-03-08T01:34:57;16.30;57.60
45843;DHT22;31563;51.744;8.252;2024-03-08T01:37:25;16.30;57.60
45843;DHT22;31563;51.744;8.252;2024-03-08T01:39:53;16.30;57.60
45843;DHT22;31563;51.744;8.252;2024-03-08T01:42:21;16.30;57.60
45843;DHT22;31563;51.744;8.252;2024-03-08T01:44:49;16.30;57.70
45843;DHT22;31563;51.744;8.252;2024-03-08T01:47:19;16.20;57.60
45843;DHT22;31563;51.744;8.252;2024-03-08T01:49:50;16.20;57.70
45843;DHT22;31563;51.744;8.252;2024-03-08T01:52:18;16.20;57.70
45843;DHT22;31563;51.744;8.252;2024-03-08T01:54:47;16.10;57.60
45843;DHT22;31563;51.744;8.252;2024-03-08T01:57:15;16.10;57.70
45843;DHT22;31563;51.744;8.252;2024-03-08T01:59:44;16.10;57.80
45843;DHT22;31563;51.744;8.252;2024-03-08T02:02:15;16.00;57.80
45843;DHT22;31563;51.744;8.252;2024-03-08T02:04:48;16.00;58.20
45843;DHT22;31563;51.744;8.252;2024-03-08T02:07:19;16.00;57.90
45843;DHT22;31563;51.744;8.252;2024-03-08T02:09:48;16.00;58.50
45843;DHT22;31563;51.744;8.252;2024-03-08T02:12:17;16.00;57.80
45843;DHT22;31563;51.744;8.252;2024-03-08T02:14:47;16.10;57.80
45843;DHT22;31563;51.744;8.252;2024-03-08T02:17:16;16.00;57.70
45843;DHT22;31563;51.744;8.252;2024-03-08T02:19:44;16.00;57.70
45843;DHT22;31563;51.744;8.252;2024-03-08T02:22:14;16.00;57.70
45843;DHT22;31563;51.744;8.252;2024-03-08T02:24:42;16.00;57.60
45843;DHT22;31563;51.744;8.252;2024-03-08T02:27:11;16.00;57.80
45843;DHT22;31563;51.744;8.252;2024-03-08T02:29:40;16.00;57.70
45843;DHT22;31563;51.744;8.252;2024-03-08T02:32:11;16.00;57.70
45843;DHT22;31563;51.744;8.252;2024-03-08T02:34:39;16.00;57.60
45843;DHT22;31563;51.744;8.252;2024-03-08T02:37:07;16.00;57.60
45843;DHT22;31563;51.744;8.252;2024-03-08T02:39:37;16.00;58.30
45843;DHT22;31563;51.744;8.252;2024-03-08T02:42:05;15.90;57.50
45843;DHT22;31563;51.744;8.252;2024-03-08T02:44:34;15.90;57.60
45843;DHT22;31563;51.744;8.252;2024-03-08T02:47:02;15.80;57.60
45843;DHT22;31563;51.744;8.252;2024-03-08T02:49:30;15.90;57.60
45843;DHT22;31563;51.744;8.252;2024-03-08T02:51:58;15.80;57.60
45843;DHT22;31563;51.744;8.252;2024-03-08T02:54:26;15.80;57.60
45843;DHT22;31563;51.744;8.252;2024-03-08T02:56:56;15.70;57.70
45843;DHT22;31563;51.744;8.252;2024-03-08T02:59:24;15.70;57.70
45843;DHT22;31563;51.744;8.252;2024-03-08T03:01:52;15.70;57.70
45843;DHT22;31563;51.744;8.252;2024-03-08T03:04:20;15.70;57.80
45843;DHT22;31563;51.744;8.252;2024-03-08T03:06:48;15.70;57.90
45843;DHT22;31563;51.744;8.252;2024-03-08T03:09:16;15.70;57.80
45843;DHT22;31563;51.744;8.252;2024-03-08T03:11:50;15.70;57.80
45843;DHT22;31563;51.744;8.252;2024-03-08T03:14:19;15.70;57.70
45843;DHT22;31563;51.744;8.252;2024-03-08T03:16:48;15.70;57.70
45843;DHT22;31563;51.744;8.252;2024-03-08T03:19:16;15.70;57.70
45843;DHT22;31563;51.744;8.252;2024-03-08T03:21:44;15.70;57.70
45843;DHT22;31563;51.744;8.252;2024-03-08T03:24:13;15.70;57.70
45843;DHT22;31563;51.744;8.252;2024-03-08T03:26:43;15.70;57.80
45843;DHT22;31563;51.744;8.252;2024-03-08T03:29:11;15.70;57.60
45843;DHT22;31563;51.744;8.252;2024-03-08T03:31:40;15.70;57.60
45843;DHT22;31563;51.744;8.252;2024-03-08T03:34:08;15.60;57.60
45843;DHT22;31563;51.744;8.252;2024-03-08T03:36:36;15.60;57.60
45843;DHT22;31563;51.744;8.252;2024-03-08T03:39:09;15.70;57.50
45843;DHT22;31563;51.744;8.252;2024-03-08T03:41:39;15.60;57.50
45843;DHT22;31563;51.744;8.252;2024-03-08T03:44:08;15.60;57.50
45843;DHT22;31563;51.744;8.252;2024-03-08T03:46:36;15.50;57.50
45843;DHT22;31563;51.744;8.252;2024-03-08T03:49:06;15.50;57.60
45843;DHT22;31563;51.744;8.252;2024-03-08T03:51:34;15.50;57.60
45843;DHT22;31563;51.744;8.252;2024-03-08T03:54:02;15.50;57.60
45843;DHT22;31563;51.744;8.252;2024-03-08T03:56:31;15.40;57.60
45843;DHT22;31563;51.744;8.252;2024-03-08T03:58:59;15.40;57.60
45843;DHT22;31563;51.744;8.252;2024-03-08T04:01:27;15.40;57.70
45843;DHT22;31563;51.744;8.252;2024-03-08T04:03:56;15.40;57.80
45843;DHT22;31563;51.744;8.252;2024-03-08T04:06:25;15.40;57.70
45843;DHT22;31563;51.744;8.252;2024-03-08T04:08:53;15.40;57.60
45843;DHT22;31563;51.744;8.252;2024-03-08T04:11:22;15.40;57.60
45843;DHT22;31563;51.744;8.252;2024-03-08T04:13:49;15.40;57.60
45843;DHT22;31563;51.744;8.252;2024-03-08T04:16:19;15.40;57.70
45843;DHT22;31563;51.744;8.252;2024-03-08T04:18:47;15.40;57.70
45843;DHT22;31563;51.744;8.252;2024-03-08T04:21:15;15.40;57.70
45843;DHT22;31563;51.744;8.252;2024-03-08T04:23:45;15.40;57.60
45843;DHT22;31563;51.744;8.252;2024-03-08T04:26:13;15.40;57.60
45843;DHT22;31563;51.744;8.252;2024-03-08T04:28:45;15.40;57.50
45843;DHT22;31563;51.744;8.252;2024-03-08T04:31:13;15.40;57.60
45843;DHT22;31563;51.744;8.252;2024-03-08T04:33:42;15.40;57.60
45843;DHT22;31563;51.744;8.252;2024-03-08T04:36:11;15.30;57.50
45843;DHT22;31563;51.744;8.252;2024-03-08T04:38:40;15.30;57.60
45843;DHT22;31563;51.744;8.252;2024-03-08T04:41:10;15.30;57.60
45843;DHT22;31563;51.744;8.252;2024-03-08T04:43:38;15.30;57.60
45843;DHT22;31563;51.744;8.252;2024-03-08T04:46:07;15.20;57.50
45843;DHT22;31563;51.744;8.252;2024-03-08T04:48:35;15.20;57.70
45843;DHT22;31563;51.744;8.252;2024-03-08T04:51:04;15.30;57.70
45843;DHT22;31563;51.744;8.252;2024-03-08T04:53:32;15.30;57.70
45843;DHT22;31563;51.744;8.252;2024-03-08T04:56:01;15.30;57.60
45843;DHT22;31563;51.744;8.252;2024-03-08T04:58:35;15.40;57.60
45843;DHT22;31563;51.744;8.252;2024-03-08T05:01:03;15.40;57.40
45843;DHT22;31563;51.744;8.252;2024-03-08T05:03:32;15.40;57.30
45843;DHT22;31563;51.744;8.252;2024-03-08T05:06:00;15.50;57.20
45843;DHT22;31563;51.744;8.252;2024-03-08T05:08:28;15.50;57.00
45843;DHT22;31563;51.744;8.252;2024-03-08T05:10:56;15.60;56.90
45843;DHT22;31563;51.744;8.252;2024-03-08T05:13:24;15.60;56.80
45843;DHT22;31563;51.744;8.252;2024-03-08T05:15:55;15.60;56.70
45843;DHT22;31563;51.744;8.252;2024-03-08T05:18:25;15.70;56.60
45843;DHT22;31563;51.744;8.252;2024-03-08T05:20:54;15.70;56.60
45843;DHT22;31563;51.744;8.252;2024-03-08T05:23:23;15.70;56.50
45843;DHT22;31563;51.744;8.252;2024-03-08T05:25:51;15.70;56.40
45843;DHT22;31563;51.744;8.252;2024-03-08T05:28:19;15.70;56.40
45843;DHT22;31563;51.744;8.252;2024-03-08T05:30:47;15.80;56.40
45843;DHT22;31563;51.744;8.252;2024-03-08T05:33:16;15.80;56.30
45843;DHT22;31563;51.744;8.252;2024-03-08T05:35:46;15.80;56.30
45843;DHT22;31563;51.744;8.252;2024-03-08T05:38:14;15.80;56.30
45843;DHT22;31563;51.744;8.252;2024-03-08T05:40:42;15.80;56.20
45843;DHT22;31563;51.744;8.252;2024-03-08T05:43:11;15.80;56.20
45843;DHT22;31563;51.744;8.252;2024-03-08T05:45:39;15.80;56.10
45843;DHT22;31563;51.744;8.252;2024-03-08T05:48:07;15.80;56.10
45843;DHT22;31563;51.744;8.252;2024-03-08T05:50:37;15.80;56.10
45843;DHT22;31563;51.744;8.252;2024-03-08T05:53:05;15.80;56.00
45843;DHT22;31563;51.744;8.252;2024-03-08T05:55:34;15.80;56.00
45843;DHT22;31563;51.744;8.252;2024-03-08T05:58:02;15.80;55.90
45843;DHT22;31563;51.744;8.252;2024-03-08T06:00:30;15.80;55.90
45843;DHT22;31563;51.744;8.252;2024-03-08T06:02:58;15.90;55.90
45843;DHT22;31563;51.744;8.252;2024-03-08T06:05:27;15.90;55.90
45843;DHT22;31563;51.744;8.252;2024-03-08T06:07:56;15.90;55.80
45843;DHT22;31563;51.744;8.252;2024-03-08T06:10:24;15.90;55.80
45843;DHT22;31563;51.744;8.252;2024-03-08T06:12:53;15.90;55.70
45843;DHT22;31563;51.744;8.252;2024-03-08T06:15:21;16.00;55.60
45843;DHT22;31563;51.744;8.252;2024-03-08T06:17:49;16.00;55.60
45843;DHT22;31563;51.744;8.252;2024-03-08T06:20:22;16.00;55.50
45843;DHT22;31563;51.744;8.252;2024-03-08T06:22:53;16.10;55.40
45843;DHT22;31563;51.744;8.252;2024-03-08T06:25:22;16.10;55.30
45843;DHT22;31563;51.744;8.252;2024-03-08T06:27:51;16.10;55.20
45843;DHT22;31563;51.744;8.252;2024-03-08T06:30:19;16.20;55.30
45843;DHT22;31563;51.744;8.252;2024-03-08T06:32:48;16.20;55.10
45843;DHT22;31563;51.744;8.252;2024-03-08T06:35:16;16.20;55.10
45843;DHT22;31563;51.744;8.252;2024-03-08T06:37:44;16.30;55.00
45843;DHT22;31563;51.744;8.252;2024-03-08T06:40:12;16.30;54.80
45843;DHT22;31563;51.744;8.252;2024-03-08T06:42:43;16.40;54.80
45843;DHT22;31563;51.744;8.252;2024-03-08T06:45:12;16.40;54.60
45843;DHT22;31563;51.744;8.252;2024-03-08T06:47:42;16.50;54.60
45843;DHT22;31563;51.744;8.252;2024-03-08T06:50:12;16.50;54.40
45843;DHT22;31563;51.744;8.252;2024-03-08T06:52:42;16.50;54.30
45843;DHT22;31563;51.744;8.252;2024-03-08T06:55:11;16.60;54.20
45843;DHT22;31563;51.744;8.252;2024-03-08T06:57:39;16.70;54.00
45843;DHT22;31563;51.744;8.252;2024-03-08T07:00:10;16.70;53.90
45843;DHT22;31563;51.744;8.252;2024-03-08T07:02:45;16.80;53.70
45843;DHT22;31563;51.744;8.252;2024-03-08T07:05:15;16.90;53.60
45843;DHT22;31563;51.744;8.252;2024-03-08T07:07:43;17.00;53.40
45843;DHT22;31563;51.744;8.252;2024-03-08T07:10:11;17.10;53.20
45843;DHT22;31563;51.744;8.252;2024-03-08T07:12:42;17.30;52.90
45843;DHT22;31563;51.744;8.252;2024-03-08T07:15:12;17.40;52.60
45843;DHT22;31563;51.744;8.252;2024-03-08T07:17:42;17.50;53.00
45843;DHT22;31563;51.744;8.252;2024-03-08T07:20:12;17.60;52.20
45843;DHT22;31563;51.744;8.252;2024-03-08T07:22:41;17.80;52.00
45843;DHT22;31563;51.744;8.252;2024-03-08T07:25:13;17.90;51.60
45843;DHT22;31563;51.744;8.252;2024-03-08T07:27:50;18.00;51.30
45843;DHT22;31563;51.744;8.252;2024-03-08T07:30:25;18.20;51.00
45843;DHT22;31563;51.744;8.252;2024-03-08T07:33:12;18.30;50.90
45843;DHT22;31563;51.744;8.252;2024-03-08T07:35:41;18.50;51.20
45843;DHT22;31563;51.744;8.252;2024-03-08T07:38:11;18.60;50.40
45843;DHT22;31563;51.744;8.252;2024-03-08T07:40:40;18.50;50.00
45843;DHT22;31563;51.744;8.252;2024-03-08T07:43:11;18.30;50.40
45843;DHT22;31563;51.744;8.252;2024-03-08T07:45:42;18.20;50.80
45843;DHT22;31563;51.744;8.252;2024-03-08T07:48:10;18.10;51.00
45843;DHT22;31563;51.744;8.252;2024-03-08T07:50:40;18.10;51.10
45843;DHT22;31563;51.744;8.252;2024-03-08T07:53:09;18.10;51.10
45843;DHT22;31563;51.744;8.252;2024-03-08T07:55:37;18.20;51.20
45843;DHT22;31563;51.744;8.252;2024-03-08T07:58:06;18.20;51.10
45843;DHT22;31563;51.744;8.252;2024-03-08T08:00:36;18.20;51.10
45843;DHT22;31563;51.744;8.252;2024-03-08T08:03:05;18.30;51.10
45843;DHT22;31563;51.744;8.252;2024-03-08T08:05:35;18.30;51.00
45843;DHT22;31563;51.744;8.252;2024-03-08T08:08:05;18.40;51.00
45843;DHT22;31563;51.744;8.252;2024-03-08T08:10:37;18.40;50.90
45843;DHT22;31563;51.744;8.252;2024-03-08T08:13:05;18.50;50.90
45843;DHT22;31563;51.744;8.252;2024-03-08T08:15:33;18.50;50.80
45843;DHT22;31563;51.744;8.252;2024-03-08T08:18:02;18.60;50.80
45843;DHT22;31563;51.744;8.252;2024-03-08T08:20:34;18.60;50.70
45843;DHT22;31563;51.744;8.252;2024-03-08T08:23:03;18.70;50.70
45843;DHT22;31563;51.744;8.252;2024-03-08T08:25:31;18.70;50.60
45843;DHT22;31563;51.744;8.252;2024-03-08T08:28:01;18.70;50.60
45843;DHT22;31563;51.744;8.252;2024-03-08T08:30:30;18.80;50.50
45843;DHT22;31563;51.744;8.252;2024-03-08T08:32:59;18.80;50.40
45843;DHT22;31563;51.744;8.252;2024-03-08T08:35:28;18.90;50.40
45843;DHT22;31563;51.744;8.252;2024-03-08T08:37:57;19.00;50.40
45843;DHT22;31563;51.744;8.252;2024-03-08T08:40:26;19.00;50.30
45843;DHT22;31563;51.744;8.252;2024-03-08T08:42:56;19.00;50.30
45843;DHT22;31563;51.744;8.252;2024-03-08T08:45:25;19.10;50.30
45843;DHT22;31563;51.744;8.252;2024-03-08T08:47:53;19.10;50.30
45843;DHT22;31563;51.744;8.252;2024-03-08T08:50:22;19.20;50.80
45843;DHT22;31563;51.744;8.252;2024-03-08T08:52:51;19.20;50.10
45843;DHT22;31563;51.744;8.252;2024-03-08T08:55:21;19.30;50.10
45843;DHT22;31563;51.744;8.252;2024-03-08T08:57:53;19.40;50.10
45843;DHT22;31563;51.744;8.252;2024-03-08T09:00:21;19.40;50.70
45843;DHT22;31563;51.744;8.252;2024-03-08T09:02:54;19.50;50.70
45843;DHT22;31563;51.744;8.252;2024-03-08T09:05:24;19.50;50.00
45843;DHT22;31563;51.744;8.252;2024-03-08T09:07:53;19.60;49.90
45843;DHT22;31563;51.744;8.252;2024-03-08T09:10:23;19.70;49.80
45843;DHT22;31563;51.744;8.252;2024-03-08T09:12:57;19.70;49.90
45843;DHT22;31563;51.744;8.252;2024-03-08T09:15:26;19.80;49.80
45843;DHT22;31563;51.744;8.252;2024-03-08T09:17:55;19.90;49.70
45843;DHT22;31563;51.744;8.252;2024-03-08T09:20:23;20.00;49.70
45843;DHT22;31563;51.744;8.252;2024-03-08T09:22:52;20.00;49.60
45843;DHT22;31563;51.744;8.252;2024-03-08T09:25:20;20.10;49.60
45843;DHT22;31563;51.744;8.252;2024-03-08T09:27:50;20.10;49.60
45843;DHT22;31563;51.744;8.252;2024-03-08T09:30:18;20.20;49.50
45843;DHT22;31563;51.744;8.252;2024-03-08T09:32:48;20.20;49.50
45843;DHT22;31563;51.744;8.252;2024-03-08T09:35:18;20.30;49.50
45843;DHT22;31563;51.744;8.252;2024-03-08T09:37:47;20.40;49.40
45843;DHT22;31563;51.744;8.252;2024-03-08T09:40:18;20.40;49.30
45843;DHT22;31563;51.744;8.252;2024-03-08T09:42:49;20.50;49.30
45843;DHT22;31563;51.744;8.252;2024-03-08T09:45:19;20.50;49.20
45843;DHT22;31563;51.744;8.252;2024-03-08T09:47:48;20.60;49.20
45843;DHT22;31563;51.744;8.252;2024-03-08T09:50:17;20.60;49.10
45843;DHT22;31563;51.744;8.252;2024-03-08T09:52:47;20.80;49.10
45843;DHT22;31563;51.744;8.252;2024-03-08T09:55:17;20.80;49.00
45843;DHT22;31563;51.744;8.252;2024-03-08T09:57:51;20.90;48.90
45843;DHT22;31563;51.744;8.252;2024-03-08T10:00:38;21.00;48.80
45843;DHT22;31563;51.744;8.252;2024-03-08T10:03:06;21.00;48.80
45843;DHT22;31563;51.744;8.252;2024-03-08T10:05:37;21.10;48.80
45843;DHT22;31563;51.744;8.252;2024-03-08T10:08:05;21.10;48.70
45843;DHT22;31563;51.744;8.252;2024-03-08T10:10:34;21.20;48.80
45843;DHT22;31563;51.744;8.252;2024-03-08T10:13:05;21.30;48.80
45843;DHT22;31563;51.744;8.252;2024-03-08T10:15:34;21.30;48.80
45843;DHT22;31563;51.744;8.252;2024-03-08T10:18:02;21.40;48.80
45843;DHT22;31563;51.744;8.252;2024-03-08T10:20:31;21.50;48.80
45843;DHT22;31563;51.744;8.252;2024-03-08T10:23:01;21.50;48.70
45843;DHT22;31563;51.744;8.252;2024-03-08T10:25:37;21.60;48.70
45843;DHT22;31563;51.744;8.252;2024-03-08T10:28:07;21.60;48.70
45843;DHT22;31563;51.744;8.252;2024-03-08T10:30:35;21.70;48.70
45843;DHT22;31563;51.744;8.252;2024-03-08T10:33:04;21.80;48.70
45843;DHT22;31563;51.744;8.252;2024-03-08T10:35:34;21.90;48.70
45843;DHT22;31563;51.744;8.252;2024-03-08T10:38:04;22.00;48.50
45843;DHT22;31563;51.744;8.252;2024-03-08T10:40:35;22.00;48.40
45843;DHT22;31563;51.744;8.252;2024-03-08T10:43:22;22.10;48.30
45843;DHT22;31563;51.744;8.252;2024-03-08T10:46:01;22.20;48.30
45843;DHT22;31563;51.744;8.252;2024-03-08T10:48:32;22.30;48.20
45843;DHT22;31563;51.744;8.252;2024-03-08T10:51:06;22.40;48.20
45843;DHT22;31563;51.744;8.252;2024-03-08T10:53:38;22.50;48.20
45843;DHT22;31563;51.744;8.252;2024-03-08T10:56:08;22.60;48.20
45843;DHT22;31563;51.744;8.252;2024-03-08T10:58:39;22.70;48.80
45843;DHT22;31563;51.744;8.252;2024-03-08T11:01:08;22.70;48.00
45843;DHT22;31563;51.744;8.252;2024-03-08T11:03:47;22.80;48.10
45843;DHT22;31563;51.744;8.252;2024-03-08T11:06:23;22.90;47.90
45843;DHT22;31563;51.744;8.252;2024-03-08T11:08:57;23.00;47.80
45843;DHT22;31563;51.744;8.252;2024-03-08T11:11:26;23.10;47.70
45843;DHT22;31563;51.744;8.252;2024-03-08T11:14:02;23.10;47.70
45843;DHT22;31563;51.744;8.252;2024-03-08T11:16:39;23.30;47.60
45843;DHT22;31563;51.744;8.252;2024-03-08T11:19:25;23.40;47.50
45843;DHT22;31563;51.744;8.252;2024-03-08T11:22:00;23.50;47.30
45843;DHT22;31563;51.744;8.252;2024-03-08T11:24:28;23.60;47.30
45843;DHT22;31563;51.744;8.252;2024-03-08T11:27:05;23.60;47.30
45843;DHT22;31563;51.744;8.252;2024-03-08T11:29:36;23.70;47.30
45843;DHT22;31563;51.744;8.252;2024-03-08T11:32:11;23.80;47.20
45843;DHT22;31563;51.744;8.252;2024-03-08T11:34:41;23.90;47.10
45843;DHT22;31563;51.744;8.252;2024-03-08T11:37:12;24.00;47.00
45843;DHT22;31563;51.744;8.252;2024-03-08T11:39:46;24.10;47.00
45843;DHT22;31563;51.744;8.252;2024-03-08T11:42:16;24.20;47.00
45843;DHT22;31563;51.744;8.252;2024-03-08T11:44:46;24.20;46.80
45843;DHT22;31563;51.744;8.252;2024-03-08T11:47:15;24.30;46.90
45843;DHT22;31563;51.744;8.252;2024-03-08T11:49:44;24.30;46.90
45843;DHT22;31563;51.744;8.252;2024-03-08T11:52:15;24.40;46.80
45843;DHT22;31563;51.744;8.252;2024-03-08T11:54:54;24.50;46.80
45843;DHT22;31563;51.744;8.252;2024-03-08T11:57:25;24.60;46.70
45843;DHT22;31563;51.744;8.252;2024-03-08T11:59:55;24.60;46.60
45843;DHT22;31563;51.744;8.252;2024-03-08T12:02:24;24.70;46.60
45843;DHT22;31563;51.744;8.252;2024-03-08T12:04:57;24.70;46.60
45843;DHT22;31563;51.744;8.252;2024-03-08T12:07:26;24.80;46.60
45843;DHT22;31563;51.744;8.252;2024-03-08T12:10:16;24.80;46.50
45843;DHT22;31563;51.744;8.252;2024-03-08T12:12:46;24.90;46.40
45843;DHT22;31563;51.744;8.252;2024-03-08T12:15:16;25.10;46.50
45843;DHT22;31563;51.744;8.252;2024-03-08T12:17:47;25.10;46.30
45843;DHT22;31563;51.744;8.252;2024-03-08T12:20:16;25.20;46.40
45843;DHT22;31563;51.744;8.252;2024-03-08T12:22:45;25.30;46.20
45843;DHT22;31563;51.744;8.252;2024-03-08T12:25:14;25.30;46.10
45843;DHT22;31563;51.744;8.252;2024-03-08T12:27:43;25.40;46.10
45843;DHT22;31563;51.744;8.252;2024-03-08T12:30:19;25.50;46.10
45843;DHT22;31563;51.744;8.252;2024-03-08T12:32:53;25.50;46.00
45843;DHT22;31563;51.744;8.252;2024-03-08T12:35:25;25.50;46.10
45843;DHT22;31563;51.744;8.252;2024-03-08T12:37:55;25.60;46.20
45843;DHT22;31563;51.744;8.252;2024-03-08T12:40:26;25.60;46.00
45843;DHT22;31563;51.744;8.252;2024-03-08T12:42:56;25.70;46.00
45843;DHT22;31563;51.744;8.252;2024-03-08T12:45:25;25.60;46.20
45843;DHT22;31563;51.744;8.252;2024-03-08T12:47:54;25.70;46.00
45843;DHT22;31563;51.744;8.252;2024-03-08T12:50:23;25.90;46.00
45843;DHT22;31563;51.744;8.252;2024-03-08T12:52:52;26.10;45.90
45843;DHT22;31563;51.744;8.252;2024-03-08T12:55:20;26.20;45.80
45843;DHT22;31563;51.744;8.252;2024-03-08T12:57:49;26.30;45.70
45843;DHT22;31563;51.744;8.252;2024-03-08T13:00:19;26.40;45.50
45843;DHT22;31563;51.744;8.252;2024-03-08T13:02:52;26.50;45.40
45843;DHT22;31563;51.744;8.252;2024-03-08T13:05:20;26.50;45.50
45843;DHT22;31563;51.744;8.252;2024-03-08T13:07:48;26.60;45.50
45843;DHT22;31563;51.744;8.252;2024-03-08T13:10:16;26.70;45.40
45843;DHT22;31563;51.744;8.252;2024-03-08T13:12:47;26.80;45.30
45843;DHT22;31563;51.744;8.252;2024-03-08T13:15:19;26.90;45.20
45843;DHT22;31563;51.744;8.252;2024-03-08T13:17:48;27.00;45.80
45843;DHT22;31563;51.744;8.252;2024-03-08T13:20:18;27.10;45.20
45843;DHT22;31563;51.744;8.252;2024-03-08T13:22:56;27.30;45.20
45843;DHT22;31563;51.744;8.252;2024-03-08T13:25:27;27.30;45.00
45843;DHT22;31563;51.744;8.252;2024-03-08T13:27:55;27.50;44.70
45843;DHT22;31563;51.744;8.252;2024-03-08T13:30:26;27.70;44.50
45843;DHT22;31563;51.744;8.252;2024-03-08T13:32:54;28.00;44.50
45843;DHT22;31563;51.744;8.252;2024-03-08T13:35:24;28.20;44.30
45843;DHT22;31563;51.744;8.252;2024-03-08T13:37:53;28.40;43.90
45843;DHT22;31563;51.744;8.252;2024-03-08T13:40:22;28.70;43.50
45843;DHT22;31563;51.744;8.252;2024-03-08T13:42:50;29.70;42.90
45843;DHT22;31563;51.744;8.252;2024-03-08T13:45:19;31.80;40.80
45843;DHT22;31563;51.744;8.252;2024-03-08T13:47:49;33.40;38.50
45843;DHT22;31563;51.744;8.252;2024-03-08T13:50:18;34.50;37.20
45843;DHT22;31563;51.744;8.252;2024-03-08T13:52:50;35.20;36.30
45843;DHT22;31563;51.744;8.252;2024-03-08T13:55:21;35.80;35.30
45843;DHT22;31563;51.744;8.252;2024-03-08T13:57:50;36.20;34.80
45843;DHT22;31563;51.744;8.252;2024-03-08T14:00:19;36.40;34.50
45843;DHT22;31563;51.744;8.252;2024-03-08T14:02:49;36.60;34.30
45843;DHT22;31563;51.744;8.252;2024-03-08T14:05:17;36.90;34.00
45843;DHT22;31563;51.744;8.252;2024-03-08T14:07:46;36.80;33.70
45843;DHT22;31563;51.744;8.252;2024-03-08T14:10:18;37.00;33.80
45843;DHT22;31563;51.744;8.252;2024-03-08T14:12:47;36.80;33.50
45843;DHT22;31563;51.744;8.252;2024-03-08T14:15:17;36.90;33.40
45843;DHT22;31563;51.744;8.252;2024-03-08T14:17:52;36.80;33.50
45843;DHT22;31563;51.744;8.252;2024-03-08T14:20:20;36.70;33.40
45843;DHT22;31563;51.744;8.252;2024-03-08T14:22:52;36.70;33.50
45843;DHT22;31563;51.744;8.252;2024-03-08T14:25:22;36.70;33.60
45843;DHT22;31563;51.744;8.252;2024-03-08T14:27:51;36.70;33.60
45843;DHT22;31563;51.744;8.252;2024-03-08T14:30:20;36.60;33.50
45843;DHT22;31563;51.744;8.252;2024-03-08T14:33:01;36.80;33.50
45843;DHT22;31563;51.744;8.252;2024-03-08T14:35:30;36.80;33.30
45843;DHT22;31563;51.744;8.252;2024-03-08T14:37:58;37.00;33.40
45843;DHT22;31563;51.744;8.252;2024-03-08T14:40:28;36.90;33.20
45843;DHT22;31563;51.744;8.252;2024-03-08T14:42:58;37.00;33.20
45843;DHT22;31563;51.744;8.252;2024-03-08T14:45:28;36.90;33.40
45843;DHT22;31563;51.744;8.252;2024-03-08T14:47:57;36.70;33.50
45843;DHT22;31563;51.744;8.252;2024-03-08T14:50:26;36.80;33.60
45843;DHT22;31563;51.744;8.252;2024-03-08T14:52:54;36.90;33.60
45843;DHT22;31563;51.744;8.252;2024-03-08T14:55:22;36.80;33.60
45843;DHT22;31563;51.744;8.252;2024-03-08T14:57:53;36.70;33.60
45843;DHT22;31563;51.744;8.252;2024-03-08T15:00:21;36.60;33.70
45843;DHT22;31563;51.744;8.252;2024-03-08T15:03:00;36.70;33.90
45843;DHT22;31563;51.744;8.252;2024-03-08T15:05:31;36.50;34.00
45843;DHT22;31563;51.744;8.252;2024-03-08T15:08:03;36.40;34.10
45843;DHT22;31563;51.744;8.252;2024-03-08T15:10:37;36.50;34.10
45843;DHT22;31563;51.744;8.252;2024-03-08T15:13:09;36.60;34.10
45843;DHT22;31563;51.744;8.252;2024-03-08T15:15:49;36.70;34.10
45843;DHT22;31563;51.744;8.252;2024-03-08T15:18:23;36.70;34.10
45843;DHT22;31563;51.744;8.252;2024-03-08T15:21:01;36.60;34.10
45843;DHT22;31563;51.744;8.252;2024-03-08T15:23:30;36.40;34.30
45843;DHT22;31563;51.744;8.252;2024-03-08T15:25:58;36.50;34.40
45843;DHT22;31563;51.744;8.252;2024-03-08T15:28:29;36.40;34.40
45843;DHT22;31563;51.744;8.252;2024-03-08T15:31:04;36.40;34.50
45843;DHT22;31563;51.744;8.252;2024-03-08T15:33:33;36.10;34.60
45843;DHT22;31563;51.744;8.252;2024-03-08T15:36:08;36.10;34.80
45843;DHT22;31563;51.744;8.252;2024-03-08T15:38:38;35.70;35.00
45843;DHT22;31563;51.744;8.252;2024-03-08T15:41:06;35.70;35.30
45843;DHT22;31563;51.744;8.252;2024-03-08T15:43:40;35.50;35.40
45843;DHT22;31563;51.744;8.252;2024-03-08T15:46:09;35.40;35.60